createdAt,value
2018-05-06T00:00:34.986Z,3.00
2018-05-06T00:03:02.506Z,2.77
2018-05-06T00:05:30.029Z,2.83
2018-05-06T00:07:57.608Z,2.80
2018-05-06T00:10:25.135Z,2.73
2018-05-06T00:12:52.659Z,3.30
2018-05-06T00:15:20.503Z,3.20
2018-05-06T00:17:47.965Z,2.70
2018-05-06T00:20:15.487Z,3.10
2018-05-06T00:22:43.048Z,3.00
2018-05-06T00:25:10.579Z,3.10
2018-05-06T00:27:38.186Z,2.20
2018-05-06T00:30:05.714Z,2.70
2018-05-06T00:32:33.253Z,2.47
2018-05-06T00:35:00.806Z,3.33
2018-05-06T00:37:28.336Z,3.03
2018-05-06T00:39:56.224Z,2.97
2018-05-06T00:42:23.763Z,2.63
2018-05-06T00:44:51.285Z,3.30
2018-05-06T00:47:19.256Z,2.50
2018-05-06T00:49:46.783Z,2.37
2018-05-06T00:52:14.319Z,2.37
2018-05-06T00:54:44.791Z,3.27
2018-05-06T00:57:12.312Z,2.60
2018-05-06T00:59:39.844Z,3.27
2018-05-06T01:02:07.446Z,2.83
2018-05-06T01:04:34.969Z,2.30
2018-05-06T01:07:02.501Z,2.90
2018-05-06T01:09:30.488Z,2.80
2018-05-06T01:11:58.014Z,2.60
2018-05-06T01:14:25.541Z,2.60
2018-05-06T01:16:53.203Z,2.90
2018-05-06T01:19:20.884Z,2.63
2018-05-06T01:21:48.411Z,2.67
2018-05-06T01:24:15.925Z,3.10
2018-05-06T01:26:43.468Z,2.73
2018-05-06T01:29:10.993Z,3.43
2018-05-06T01:31:39.003Z,3.07
2018-05-06T01:34:06.531Z,3.97
2018-05-06T01:36:34.052Z,3.70
2018-05-06T01:39:01.607Z,3.90
2018-05-06T01:41:29.136Z,3.17
2018-05-06T01:43:56.816Z,3.50
2018-05-06T01:46:24.338Z,3.13
2018-05-06T01:48:51.862Z,4.13
2018-05-06T01:51:19.467Z,3.10
2018-05-06T01:53:46.986Z,3.00
2018-05-06T01:56:14.554Z,2.80
2018-05-06T01:58:42.082Z,3.20
2018-05-06T02:01:09.779Z,3.10
2018-05-06T02:03:37.327Z,3.40
2018-05-06T02:06:04.864Z,3.07
2018-05-06T02:08:32.416Z,3.03
2018-05-06T02:10:59.966Z,2.73
2018-05-06T02:13:27.495Z,3.00
2018-05-06T02:15:55.073Z,2.43
2018-05-06T02:18:22.635Z,2.87
2018-05-06T02:20:50.162Z,2.97
2018-05-06T02:23:17.707Z,2.97
2018-05-06T02:25:45.250Z,2.60
2018-05-06T02:28:12.822Z,3.00
2018-05-06T02:30:40.352Z,2.53
2018-05-06T02:33:07.887Z,3.27
2018-05-06T02:35:35.443Z,3.27
2018-05-06T02:38:02.964Z,2.57
2018-05-06T02:40:30.519Z,3.43
2018-05-06T02:42:58.053Z,3.20
2018-05-06T02:45:25.749Z,3.40
2018-05-06T02:47:53.305Z,2.30
2018-05-06T02:50:20.830Z,2.80
2018-05-06T02:52:48.383Z,3.10
2018-05-06T02:55:15.918Z,2.70
2018-05-06T02:57:43.494Z,3.03
2018-05-06T03:00:11.023Z,3.37
2018-05-06T03:02:38.550Z,3.07
2018-05-06T03:05:06.129Z,3.10
2018-05-06T03:07:33.655Z,3.37
2018-05-06T03:10:01.174Z,2.80
2018-05-06T03:12:28.737Z,2.67
2018-05-06T03:14:56.272Z,2.37
2018-05-06T03:17:23.887Z,2.63
2018-05-06T03:19:51.419Z,3.37
2018-05-06T03:22:18.974Z,2.70
2018-05-06T03:24:46.537Z,2.50
2018-05-06T03:27:14.081Z,3.10
2018-05-06T03:29:41.605Z,3.10
2018-05-06T03:32:09.155Z,2.60
2018-05-06T03:34:36.681Z,3.37
2018-05-06T03:37:04.368Z,3.10
2018-05-06T03:39:31.912Z,2.53
2018-05-06T03:41:59.438Z,3.33
2018-05-06T03:44:27.099Z,2.73
2018-05-06T03:46:55.086Z,2.57
2018-05-06T03:49:22.618Z,3.10
2018-05-06T03:51:50.152Z,2.80
2018-05-06T03:54:17.743Z,2.90
2018-05-06T03:57:05.956Z,3.13
2018-05-06T03:59:45.343Z,3.33
2018-05-06T04:05:22.814Z,2.60
2018-05-06T04:07:50.344Z,2.80
2018-05-06T04:10:17.875Z,2.90
2018-05-06T04:12:45.427Z,3.00
2018-05-06T04:15:12.947Z,2.77
2018-05-06T04:17:40.498Z,4.63
2018-05-06T04:20:08.054Z,3.47
2018-05-06T04:22:35.603Z,3.10
2018-05-06T04:25:03.130Z,3.57
2018-05-06T04:27:30.684Z,3.50
2018-05-06T04:29:58.218Z,3.60
2018-05-06T04:32:25.775Z,3.87
2018-05-06T04:34:53.332Z,3.03
2018-05-06T04:37:20.870Z,3.80
2018-05-06T04:39:48.423Z,3.17
2018-05-06T04:42:16.019Z,3.30
2018-05-06T04:44:43.698Z,3.03
2018-05-06T04:47:11.228Z,4.33
2018-05-06T04:49:38.821Z,3.50
2018-05-06T04:52:06.361Z,3.77
2018-05-06T04:54:33.892Z,3.77
2018-05-06T04:57:01.447Z,3.57
2018-05-06T04:59:28.974Z,3.50
2018-05-06T05:01:56.526Z,3.80
2018-05-06T05:04:24.057Z,3.70
2018-05-06T05:06:51.601Z,4.50
2018-05-06T05:09:19.264Z,3.80
2018-05-06T05:11:46.796Z,3.47
2018-05-06T05:14:14.325Z,4.33
2018-05-06T05:16:42.062Z,4.73
2018-05-06T05:19:09.624Z,4.13
2018-05-06T05:21:37.193Z,4.67
2018-05-06T05:24:04.760Z,4.23
2018-05-06T05:26:32.346Z,3.37
2018-05-06T05:28:59.951Z,4.00
2018-05-06T05:31:27.513Z,3.20
2018-05-06T05:33:55.119Z,3.90
2018-05-06T05:36:22.752Z,3.40
2018-05-06T05:38:50.332Z,3.07
2018-05-06T05:41:18.304Z,3.00
2018-05-06T05:43:45.827Z,3.43
2018-05-06T05:46:13.363Z,3.07
2018-05-06T05:48:40.925Z,3.43
2018-05-06T05:51:08.452Z,3.40
2018-05-06T05:53:36.167Z,3.00
2018-05-06T05:56:03.691Z,3.13
2018-05-06T05:58:31.220Z,3.30
2018-05-06T06:00:58.889Z,3.50
2018-05-06T06:03:26.426Z,3.13
2018-05-06T06:05:53.962Z,3.47
2018-05-06T06:08:21.644Z,3.17
2018-05-06T06:10:49.171Z,3.10
2018-05-06T06:13:16.713Z,3.03
2018-05-06T06:15:44.295Z,3.30
2018-05-06T06:18:11.820Z,2.80
2018-05-06T06:20:39.350Z,3.20
2018-05-06T06:23:06.907Z,2.87
2018-05-06T06:25:34.461Z,3.50
2018-05-06T06:28:02.015Z,3.60
2018-05-06T06:30:29.538Z,3.33
2018-05-06T06:32:57.557Z,3.53
2018-05-06T06:35:25.105Z,3.37
2018-05-06T06:37:52.657Z,3.60
2018-05-06T06:40:20.220Z,3.17
2018-05-06T06:42:47.766Z,3.43
2018-05-06T06:45:16.261Z,3.40
2018-05-06T06:47:43.822Z,3.43
2018-05-06T06:50:11.354Z,3.73
2018-05-06T06:52:38.902Z,3.67
2018-05-06T06:55:06.779Z,3.87
2018-05-06T06:57:34.815Z,3.67
2018-05-06T07:00:02.354Z,3.47
2018-05-06T07:02:29.908Z,3.50
2018-05-06T07:04:57.634Z,3.90
2018-05-06T07:07:25.165Z,2.90
2018-05-06T07:09:52.715Z,2.97
2018-05-06T07:12:20.299Z,3.03
2018-05-06T07:14:47.819Z,3.07
2018-05-06T07:17:15.348Z,3.30
2018-05-06T07:19:42.915Z,3.30
2018-05-06T07:22:10.502Z,3.03
2018-05-06T07:24:38.026Z,2.70
2018-05-06T07:27:05.568Z,2.57
2018-05-06T07:29:33.130Z,2.90
2018-05-06T07:32:00.655Z,2.00
2018-05-06T07:34:28.211Z,2.80
2018-05-06T07:36:55.741Z,2.60
2018-05-06T07:39:23.348Z,2.50
2018-05-06T07:41:50.874Z,2.50
2018-05-06T07:44:18.399Z,2.80
2018-05-06T07:46:45.954Z,2.77
2018-05-06T07:49:13.502Z,2.43
2018-05-06T07:51:41.388Z,2.40
2018-05-06T07:54:08.939Z,2.40
2018-05-06T07:56:36.471Z,2.70
2018-05-06T07:59:04.024Z,2.77
2018-05-06T08:01:31.552Z,2.40
2018-05-06T08:03:59.244Z,2.80
2018-05-06T08:06:26.772Z,3.03
2018-05-06T08:08:54.294Z,2.27
2018-05-06T08:11:21.874Z,1.80
2018-05-06T08:13:49.408Z,2.50
2018-05-06T08:16:16.935Z,2.27
2018-05-06T08:18:44.499Z,2.23
2018-05-06T08:21:12.024Z,2.10
2018-05-06T08:23:39.587Z,2.10
2018-05-06T08:26:07.348Z,2.40
2018-05-06T08:28:34.874Z,2.03
2018-05-06T08:31:02.408Z,2.37
2018-05-06T08:33:30.008Z,2.50
2018-05-06T08:35:57.530Z,2.10
2018-05-06T08:38:25.072Z,2.30
2018-05-06T08:40:52.619Z,2.40
2018-05-06T08:43:20.147Z,2.23
2018-05-06T08:45:47.721Z,2.33
2018-05-06T08:48:15.272Z,2.20
2018-05-06T08:50:42.875Z,2.10
2018-05-06T08:53:10.394Z,2.27
2018-05-06T08:55:37.916Z,2.33
2018-05-06T08:58:05.598Z,2.17
2018-05-06T09:00:33.178Z,2.33
2018-05-06T09:03:00.698Z,2.23
2018-05-06T09:05:28.417Z,2.40
2018-05-06T09:07:55.940Z,2.50
2018-05-06T09:10:23.701Z,2.40
2018-05-06T09:12:51.253Z,2.27
2018-05-06T09:15:18.775Z,3.03
2018-05-06T09:17:46.367Z,2.63
2018-05-06T09:20:13.956Z,2.17
2018-05-06T09:22:41.479Z,3.00
2018-05-06T09:25:09.031Z,2.50
2018-05-06T09:27:36.779Z,2.20
2018-05-06T09:30:04.351Z,2.27
2018-05-06T09:32:31.875Z,2.50
2018-05-06T09:34:59.820Z,2.20
2018-05-06T09:37:27.352Z,2.67
2018-05-06T09:39:54.879Z,2.30
2018-05-06T09:42:22.426Z,1.83
2018-05-06T09:44:49.951Z,2.20
2018-05-06T09:47:18.104Z,2.50
2018-05-06T09:49:45.627Z,2.70
2018-05-06T09:52:13.141Z,2.00
2018-05-06T09:54:40.726Z,2.20
2018-05-06T09:57:08.484Z,1.97
2018-05-06T09:59:36.026Z,2.33
2018-05-06T10:02:03.560Z,2.57
2018-05-06T10:04:31.303Z,2.17
2018-05-06T10:06:58.837Z,1.90
2018-05-06T10:09:26.406Z,2.07
2018-05-06T10:11:53.966Z,1.80
2018-05-06T10:14:21.492Z,2.20
2018-05-06T10:16:49.035Z,2.20
2018-05-06T10:19:16.555Z,2.30
2018-05-06T10:21:44.159Z,2.40
2018-05-06T10:24:11.675Z,2.43
2018-05-06T10:26:39.200Z,2.43
2018-05-06T10:29:06.752Z,2.33
2018-05-06T10:31:34.282Z,2.17
2018-05-06T10:34:01.835Z,1.70
2018-05-06T10:36:29.361Z,2.07
2018-05-06T10:38:56.919Z,2.20
2018-05-06T10:41:24.498Z,1.83
2018-05-06T10:43:52.073Z,1.67
2018-05-06T10:46:19.600Z,2.03
2018-05-06T10:48:47.509Z,1.80
2018-05-06T10:51:15.051Z,2.27
2018-05-06T10:53:42.581Z,1.70
2018-05-06T10:56:10.155Z,1.83
2018-05-06T10:58:37.684Z,2.10
2018-05-06T11:01:05.227Z,1.97
2018-05-06T11:03:32.815Z,1.30
2018-05-06T11:06:00.330Z,1.57
2018-05-06T11:08:27.891Z,1.30
2018-05-06T11:10:55.437Z,1.17
2018-05-06T11:13:22.966Z,1.27
2018-05-06T11:15:50.528Z,1.50
2018-05-06T11:18:18.198Z,1.60
2018-05-06T11:20:45.719Z,1.60
2018-05-06T11:23:13.235Z,1.40
2018-05-06T11:25:40.797Z,1.60
2018-05-06T11:28:08.330Z,1.27
2018-05-06T11:30:35.912Z,1.63
2018-05-06T11:33:03.442Z,1.33
2018-05-06T11:35:30.963Z,1.10
2018-05-06T11:37:58.511Z,1.30
2018-05-06T11:40:26.032Z,1.10
2018-05-06T11:42:53.579Z,1.40
2018-05-06T11:45:21.103Z,1.30
2018-05-06T11:47:48.642Z,1.10
2018-05-06T11:50:16.163Z,1.30
2018-05-06T11:52:44.112Z,1.23
2018-05-06T11:55:11.627Z,1.10
2018-05-06T11:57:39.148Z,1.30
2018-05-06T12:00:06.699Z,1.20
2018-05-06T12:02:34.233Z,1.00
2018-05-06T12:05:01.772Z,1.10
2018-05-06T12:07:29.307Z,1.20
2018-05-06T12:09:56.872Z,1.47
2018-05-06T12:12:24.433Z,1.30
2018-05-06T12:14:52.182Z,1.30
2018-05-06T12:17:19.698Z,1.23
2018-05-06T12:19:47.218Z,1.57
2018-05-06T12:22:14.781Z,1.57
2018-05-06T12:24:42.335Z,1.10
2018-05-06T12:27:09.871Z,1.27
2018-05-06T12:29:37.416Z,1.10
2018-05-06T12:32:04.941Z,1.03
2018-05-06T12:34:32.491Z,1.10
2018-05-06T12:38:58.093Z,1.00
2018-05-06T12:41:25.648Z,1.40
2018-05-06T12:43:53.371Z,1.17
2018-05-06T12:46:20.905Z,1.10
2018-05-06T12:48:48.448Z,1.70
2018-05-06T12:51:16.015Z,1.40
2018-05-06T12:53:43.576Z,1.70
2018-05-06T12:56:11.415Z,1.27
2018-05-06T12:58:38.930Z,1.40
2018-05-06T13:01:06.445Z,1.20
2018-05-06T13:03:34.001Z,1.37
2018-05-06T13:06:01.553Z,1.50
2018-05-06T13:08:29.094Z,1.63
2018-05-06T13:10:56.667Z,1.60
2018-05-06T13:13:24.237Z,1.93
2018-05-06T13:15:51.782Z,1.50
2018-05-06T13:18:19.480Z,2.20
2018-05-06T13:20:46.997Z,2.00
2018-05-06T13:23:14.521Z,1.93
2018-05-06T13:25:42.074Z,1.73
2018-05-06T13:28:09.662Z,2.00
2018-05-06T13:30:37.491Z,1.53
2018-05-06T13:33:05.120Z,1.90
2018-05-06T13:35:32.818Z,2.00
2018-05-06T13:38:00.359Z,1.80
2018-05-06T13:40:27.907Z,1.87
2018-05-06T13:42:55.641Z,1.60
2018-05-06T13:45:23.399Z,1.77
2018-05-06T13:47:50.911Z,1.97
2018-05-06T13:50:18.719Z,1.40
2018-05-06T13:52:46.193Z,1.50
2018-05-06T13:55:13.725Z,1.70
2018-05-06T13:57:41.296Z,2.07
2018-05-06T14:00:08.812Z,1.70
2018-05-06T14:02:36.366Z,1.73
2018-05-06T14:05:04.880Z,1.73
2018-05-06T14:07:32.417Z,1.43
2018-05-06T14:10:00.151Z,1.60
2018-05-06T14:12:27.727Z,1.50
2018-05-06T14:14:55.244Z,1.70
2018-05-06T14:17:22.758Z,1.60
2018-05-06T14:19:50.662Z,1.60
2018-05-06T14:22:18.188Z,1.67
2018-05-06T14:24:45.711Z,2.03
2018-05-06T14:27:13.683Z,2.00
2018-05-06T14:29:41.247Z,1.33
2018-05-06T14:32:08.776Z,1.30
2018-05-06T14:34:36.421Z,1.40
2018-05-06T14:37:04.506Z,1.83
2018-05-06T14:39:32.037Z,1.47
2018-05-06T14:41:59.558Z,1.70
2018-05-06T14:44:27.111Z,1.40
2018-05-06T14:47:06.696Z,1.63
2018-05-06T14:49:34.259Z,1.90
2018-05-06T14:52:01.786Z,1.67
2018-05-06T14:54:29.316Z,1.57
2018-05-06T14:56:56.920Z,1.60
2018-05-06T14:59:24.607Z,1.60
2018-05-06T15:01:52.161Z,1.40
2018-05-06T15:04:19.698Z,1.83
2018-05-06T15:06:47.675Z,1.50
2018-05-06T15:09:15.190Z,2.23
2018-05-06T15:11:42.717Z,3.07
2018-05-06T15:14:10.295Z,1.90
2018-05-06T15:16:37.835Z,1.80
2018-05-06T15:19:05.403Z,2.13
2018-05-06T15:21:32.926Z,1.60
2018-05-06T15:24:00.447Z,1.50
2018-05-06T15:26:27.996Z,2.60
2018-05-06T15:28:55.568Z,1.80
2018-05-06T15:31:23.505Z,2.10
2018-05-06T15:33:51.043Z,1.50
2018-05-06T15:36:18.563Z,1.83
2018-05-06T15:38:46.129Z,1.77
2018-05-06T15:41:13.658Z,1.60
2018-05-06T15:43:41.216Z,1.77
2018-05-06T15:46:08.740Z,1.80
2018-05-06T15:48:36.291Z,1.73
2018-05-06T15:51:03.819Z,1.70
2018-05-06T15:53:31.415Z,1.57
2018-05-06T15:55:58.930Z,2.03
2018-05-06T15:58:26.478Z,1.80
2018-05-06T16:00:54.047Z,2.20
2018-05-06T16:03:33.525Z,1.53
2018-05-06T16:06:01.095Z,2.17
2018-05-06T16:08:28.628Z,1.60
2018-05-06T16:10:56.146Z,1.53
2018-05-06T16:13:24.034Z,1.70
2018-05-06T16:15:51.560Z,2.03
2018-05-06T16:18:19.084Z,1.70
2018-05-06T16:20:46.627Z,1.50
2018-05-06T16:23:14.192Z,1.27
2018-05-06T16:25:41.716Z,1.50
2018-05-06T16:28:09.659Z,1.50
2018-05-06T16:30:37.217Z,1.50
2018-05-06T16:33:04.743Z,1.30
2018-05-06T16:35:32.481Z,1.20
2018-05-06T16:37:59.998Z,1.70
2018-05-06T16:40:27.516Z,1.60
2018-05-06T16:42:55.063Z,1.70
2018-05-06T16:45:22.604Z,1.60
2018-05-06T16:47:50.357Z,1.53
2018-05-06T16:50:17.894Z,1.47
2018-05-06T16:52:45.496Z,1.57
2018-05-06T16:55:13.492Z,1.43
2018-05-06T16:57:41.007Z,1.60
2018-05-06T17:00:08.559Z,1.63
2018-05-06T17:02:36.109Z,1.80
2018-05-06T17:05:03.663Z,1.37
2018-05-06T17:07:31.223Z,1.80
2018-05-06T17:09:58.780Z,2.10
2018-05-06T17:12:26.328Z,1.90
2018-05-06T17:14:53.862Z,1.70
2018-05-06T17:17:21.847Z,1.43
2018-05-06T17:19:49.421Z,1.40
2018-05-06T17:22:16.944Z,1.60
2018-05-06T17:24:44.557Z,2.10
2018-05-06T17:27:12.112Z,1.93
2018-05-06T17:29:39.687Z,2.63
2018-05-06T17:32:08.488Z,4.20
2018-05-06T17:34:36.041Z,2.60
2018-05-06T17:37:03.972Z,2.57
2018-05-06T17:39:31.502Z,3.10
2018-05-06T17:41:59.022Z,2.00
2018-05-06T17:44:26.562Z,2.10
2018-05-06T17:46:54.078Z,1.80
2018-05-06T17:49:21.655Z,2.30
2018-05-06T17:51:49.171Z,1.73
2018-05-06T17:54:16.684Z,1.90
2018-05-06T17:56:44.278Z,2.23
2018-05-06T17:59:11.810Z,2.63
2018-05-06T18:01:39.414Z,2.17
2018-05-06T18:04:08.068Z,5.70
2018-05-06T18:06:36.605Z,3.77
2018-05-06T18:09:04.227Z,4.10
2018-05-06T18:11:31.747Z,3.03
2018-05-06T18:13:59.273Z,7.77
2018-05-06T18:16:26.838Z,3.40
2018-05-06T18:18:54.355Z,2.13
2018-05-06T18:21:21.865Z,2.20
2018-05-06T18:23:49.407Z,2.20
2018-05-06T18:26:16.920Z,2.20
2018-05-06T18:28:44.496Z,1.70
2018-05-06T18:31:12.015Z,2.20
2018-05-06T18:33:39.587Z,2.10
2018-05-06T18:36:07.210Z,2.17
2018-05-06T18:38:34.742Z,1.77
2018-05-06T18:41:02.263Z,2.33
2018-05-06T18:43:29.983Z,2.00
2018-05-06T18:45:57.516Z,1.90
2018-05-06T18:48:25.049Z,1.70
2018-05-06T18:50:52.599Z,2.70
2018-05-06T18:53:20.153Z,1.70
2018-05-06T18:55:47.690Z,2.00
2018-05-06T18:58:15.421Z,1.97
2018-05-06T19:00:42.967Z,2.40
2018-05-06T19:03:10.482Z,1.70
2018-05-06T19:05:38.375Z,1.80
2018-05-06T19:08:06.610Z,1.90
2018-05-06T19:10:34.553Z,1.73
2018-05-06T19:13:02.121Z,2.07
2018-05-06T19:15:29.734Z,1.60
2018-05-06T19:17:57.448Z,1.43
2018-05-06T19:20:24.970Z,1.80
2018-05-06T19:22:52.491Z,1.57
2018-05-06T19:25:20.578Z,2.43
2018-05-06T19:27:48.102Z,1.90
2018-05-06T19:30:15.644Z,1.57
2018-05-06T19:32:43.794Z,2.10
2018-05-06T19:35:11.255Z,1.80
2018-05-06T19:37:38.783Z,1.57
2018-05-06T19:40:06.353Z,2.20
2018-05-06T19:42:33.881Z,1.90
2018-05-06T19:45:01.419Z,1.57
2018-05-06T19:47:28.992Z,1.67
2018-05-06T19:49:56.540Z,1.60
2018-05-06T19:52:24.059Z,1.97
2018-05-06T19:54:51.923Z,1.60
2018-05-06T19:57:19.531Z,1.60
2018-05-06T19:59:47.120Z,2.10
2018-05-06T20:02:14.655Z,2.20
2018-05-06T20:04:42.189Z,1.63
2018-05-06T20:07:09.743Z,2.17
2018-05-06T20:09:37.271Z,2.00
2018-05-06T20:12:04.843Z,2.00
2018-05-06T20:14:32.366Z,2.00
2018-05-06T20:17:00.131Z,1.97
2018-05-06T20:19:27.660Z,2.07
2018-05-06T20:21:55.235Z,1.90
2018-05-06T20:24:22.810Z,2.13
2018-05-06T20:26:50.329Z,1.87
2018-05-06T20:29:17.861Z,1.90
2018-05-06T20:31:45.451Z,1.90
2018-05-06T20:34:12.985Z,2.87
2018-05-06T20:36:40.511Z,2.23
2018-05-06T20:39:08.064Z,2.20
2018-05-06T20:41:35.600Z,2.50
2018-05-06T20:44:03.181Z,1.70
2018-05-06T20:46:30.720Z,2.37
2018-05-06T20:48:58.252Z,2.50
2018-05-06T20:51:25.806Z,2.40
2018-05-06T20:53:53.397Z,2.10
2018-05-06T20:56:20.923Z,2.07
2018-05-06T20:58:48.444Z,2.13
2018-05-06T21:01:16.008Z,2.50
2018-05-06T21:03:43.530Z,2.50
2018-05-06T21:06:11.082Z,2.20
2018-05-06T21:08:38.639Z,2.00
2018-05-06T21:11:06.159Z,2.57
2018-05-06T21:13:33.789Z,3.03
2018-05-06T21:16:01.297Z,2.10
2018-05-06T21:18:29.046Z,2.30
2018-05-06T21:20:56.562Z,2.23
2018-05-06T21:23:24.092Z,1.90
2018-05-06T21:25:51.651Z,2.50
2018-05-06T21:28:19.181Z,2.13
2018-05-06T21:30:46.810Z,2.40
2018-05-06T21:33:14.291Z,2.63
2018-05-06T21:35:41.833Z,2.30
2018-05-06T21:38:09.349Z,2.90
2018-05-06T21:40:36.894Z,2.40
2018-05-06T21:43:04.455Z,2.57
2018-05-06T21:45:32.051Z,2.40
2018-05-06T21:47:59.515Z,2.50
2018-05-06T21:50:27.498Z,2.20
2018-05-06T21:52:55.029Z,2.67
2018-05-06T21:55:22.573Z,3.20
2018-05-06T21:57:50.131Z,2.13
2018-05-06T22:00:17.768Z,2.70
2018-05-06T22:02:45.324Z,3.10
2018-05-06T22:05:12.847Z,2.70
2018-05-06T22:07:40.397Z,2.90
2018-05-06T22:10:07.918Z,2.37
2018-05-06T22:12:35.576Z,2.90
2018-05-06T22:15:03.119Z,2.73
2018-05-06T22:17:30.638Z,2.93
2018-05-06T22:19:58.196Z,3.50
2018-05-06T22:22:25.805Z,3.07
2018-05-06T22:24:53.419Z,3.10
2018-05-06T22:27:20.942Z,3.80
2018-05-06T22:29:48.466Z,2.53
2018-05-06T22:32:16.042Z,3.30
2018-05-06T22:34:43.591Z,2.70
2018-05-06T22:37:11.172Z,2.50
2018-05-06T22:39:38.704Z,3.07
2018-05-06T22:42:06.239Z,2.90
2018-05-06T22:44:33.790Z,2.90
2018-05-06T22:47:01.320Z,3.30
2018-05-06T22:49:28.874Z,3.20
2018-05-06T22:51:56.402Z,3.93
2018-05-06T22:54:23.950Z,3.70
2018-05-06T22:56:51.480Z,3.27
2018-05-06T22:59:19.449Z,3.47
2018-05-06T23:01:46.985Z,3.53
2018-05-06T23:04:14.516Z,3.30
2018-05-06T23:06:42.063Z,3.60
2018-05-06T23:09:09.839Z,3.43
2018-05-06T23:11:37.451Z,3.30
2018-05-06T23:14:04.915Z,3.40
2018-05-06T23:16:32.465Z,3.50
2018-05-06T23:18:59.986Z,3.50
2018-05-06T23:21:27.868Z,3.53
2018-05-06T23:23:55.389Z,3.70
2018-05-06T23:26:22.923Z,3.27
2018-05-06T23:28:50.702Z,3.20
2018-05-06T23:31:18.222Z,3.73
2018-05-06T23:33:45.788Z,3.40
2018-05-06T23:36:13.319Z,4.00
2018-05-06T23:38:40.870Z,4.03
2018-05-06T23:41:08.816Z,3.23
2018-05-06T23:43:36.334Z,3.87
2018-05-06T23:46:03.867Z,3.83
2018-05-06T23:48:31.428Z,3.57
2018-05-06T23:50:59.124Z,4.23
2018-05-06T23:53:26.643Z,3.97
2018-05-06T23:55:54.188Z,3.80
2018-05-06T23:58:21.737Z,3.80
